Time;durP1;ratioP1;P1;durP2;ratioP2;P2;SDS_P1;SDS_P2;PMS_P1;PMS_P2;Temp;Humidity;BMP_temperature;BMP_pressure;BME280_temperature;BME280_humidity;BME280_pressure;Samples;Min_cycle;Max_cycle;Signal;HPM_P1;HPM_P2
2024/03/18 00:02:28;;;;;;;4.43;2.90;;;;;;;;;;5073275;28;20020;-66
2024/03/18 00:05:17;;;;;;;3.28;2.30;;;;;;;;;;5095510;28;20150;-66
2024/03/18 00:08:03;;;;;;;4.97;2.97;;;;;;;;;;5114253;28;20020;-67
2024/03/18 00:10:49;;;;;;;15.43;3.00;;;;;;;;;;5116444;28;20023;-67
2024/03/18 00:13:34;;;;;;;4.45;2.63;;;;;;;;;;5116455;28;20121;-67
2024/03/18 00:16:20;;;;;;;5.63;3.17;;;;;;;;;;5115431;28;20099;-67
2024/03/18 00:19:06;;;;;;;7.70;2.92;;;;;;;;;;5116231;28;20395;-67
2024/03/18 00:21:51;;;;;;;5.45;3.15;;;;;;;;;;5105223;28;20020;-67
2024/03/18 00:24:37;;;;;;;3.13;2.33;;;;;;;;;;5094827;28;20051;-66
2024/03/18 00:27:23;;;;;;;4.45;2.90;;;;;;;;;;5095375;28;20046;-66
2024/03/18 00:30:11;;;;;;;5.97;3.53;;;;;;;;;;5096161;28;20035;-67
2024/03/18 00:32:57;;;;;;;4.82;3.53;;;;;;;;;;5075367;28;20025;-67
2024/03/18 00:35:43;;;;;;;5.22;3.28;;;;;;;;;;5060227;28;20017;-67
2024/03/18 00:38:29;;;;;;;5.35;3.47;;;;;;;;;;5075151;28;20020;-66
2024/03/18 00:44:20;;;;;;;6.57;2.80;;;;;;;;;;5075993;28;20029;-67
2024/03/18 00:47:05;;;;;;;6.28;3.25;;;;;;;;;;5075912;28;20075;-67
2024/03/18 00:49:51;;;;;;;5.32;3.08;;;;;;;;;;5084390;28;20016;-67
2024/03/18 00:52:38;;;;;;;4.47;2.70;;;;;;;;;;5093840;28;20058;-66
2024/03/18 00:55:24;;;;;;;4.63;3.05;;;;;;;;;;5080321;28;20024;-67
2024/03/18 00:58:09;;;;;;;3.75;2.92;;;;;;;;;;5092744;28;20027;-67
2024/03/18 01:00:55;;;;;;;4.20;2.72;;;;;;;;;;5095329;28;20024;-67
2024/03/18 01:03:41;;;;;;;6.43;2.80;;;;;;;;;;5095469;28;20158;-67
2024/03/18 01:06:26;;;;;;;6.53;3.15;;;;;;;;;;5095425;28;20024;-67
2024/03/18 01:09:12;;;;;;;3.90;2.35;;;;;;;;;;5093054;28;20032;-67
2024/03/18 01:11:58;;;;;;;4.93;2.60;;;;;;;;;;5093978;28;20481;-66
2024/03/18 01:14:44;;;;;;;5.93;3.00;;;;;;;;;;5094343;28;20030;-66
2024/03/18 01:17:30;;;;;;;4.53;2.97;;;;;;;;;;5094735;28;20023;-66
2024/03/18 01:20:16;;;;;;;6.63;2.80;;;;;;;;;;5077950;28;20024;-65
2024/03/18 01:23:03;;;;;;;5.15;2.83;;;;;;;;;;5093042;28;20032;-67
2024/03/18 01:25:49;;;;;;;4.40;2.80;;;;;;;;;;5078527;28;20107;-67
2024/03/18 01:28:34;;;;;;;5.07;2.78;;;;;;;;;;5095216;28;20493;-66
2024/03/18 01:31:21;;;;;;;10.20;3.20;;;;;;;;;;5099411;28;20028;-66
2024/03/18 01:34:09;;;;;;;6.93;3.20;;;;;;;;;;5113057;28;20618;-67
2024/03/18 01:36:55;;;;;;;4.20;3.50;;;;;;;;;;5059521;28;20051;-66
2024/03/18 01:39:40;;;;;;;4.43;2.72;;;;;;;;;;5075814;28;20029;-66
2024/03/18 01:42:26;;;;;;;3.67;2.72;;;;;;;;;;5113524;28;20035;-66
2024/03/18 01:45:20;;;;;;;3.35;2.05;;;;;;;;;;5113171;28;20020;-66
2024/03/18 01:48:07;;;;;;;6.07;2.60;;;;;;;;;;5113409;28;20025;-67
2024/03/18 01:50:53;;;;;;;3.85;2.30;;;;;;;;;;5114429;28;20026;-67
2024/03/18 01:53:41;;;;;;;3.30;2.47;;;;;;;;;;5097931;28;20042;-66
2024/03/18 01:56:26;;;;;;;3.38;2.70;;;;;;;;;;5114227;28;20023;-67
2024/03/18 01:59:12;;;;;;;6.35;3.40;;;;;;;;;;5074436;28;20064;-67
2024/03/18 02:01:58;;;;;;;5.38;2.88;;;;;;;;;;5086510;28;20023;-67
2024/03/18 02:04:43;;;;;;;4.15;2.58;;;;;;;;;;5093352;28;20459;-66
2024/03/18 02:07:30;;;;;;;4.65;2.22;;;;;;;;;;5100158;28;20074;-67
2024/03/18 02:10:17;;;;;;;4.40;2.67;;;;;;;;;;5113695;28;20024;-66
2024/03/18 02:13:03;;;;;;;4.07;2.42;;;;;;;;;;5113022;28;20059;-66
2024/03/18 02:15:49;;;;;;;2.78;2.05;;;;;;;;;;5113714;28;20028;-67
2024/03/18 02:18:34;;;;;;;5.05;2.70;;;;;;;;;;5112524;28;20020;-67
2024/03/18 02:21:20;;;;;;;7.40;3.05;;;;;;;;;;5113742;28;20057;-66
2024/03/18 02:24:09;;;;;;;5.10;2.83;;;;;;;;;;5111966;28;20023;-66
2024/03/18 02:26:54;;;;;;;6.35;3.00;;;;;;;;;;5113088;28;20027;-67
2024/03/18 02:29:40;;;;;;;7.55;3.03;;;;;;;;;;5113136;28;20028;-66
2024/03/18 02:32:27;;;;;;;3.53;2.65;;;;;;;;;;5113232;28;20080;-67
2024/03/18 02:35:16;;;;;;;3.83;2.28;;;;;;;;;;5112704;28;20073;-66
2024/03/18 02:38:02;;;;;;;6.00;2.53;;;;;;;;;;5111647;28;20030;-66
2024/03/18 02:40:47;;;;;;;5.28;2.35;;;;;;;;;;5101312;28;20024;-66
2024/03/18 02:43:33;;;;;;;3.83;2.30;;;;;;;;;;5093075;28;20024;-67
2024/03/18 02:46:19;;;;;;;3.50;2.67;;;;;;;;;;5092887;28;20031;-66
2024/03/18 02:49:04;;;;;;;6.07;3.05;;;;;;;;;;5113135;28;20489;-67
2024/03/18 02:51:50;;;;;;;4.25;2.45;;;;;;;;;;5112718;28;20386;-67
2024/03/18 02:54:35;;;;;;;3.38;2.22;;;;;;;;;;5112803;28;20046;-67
2024/03/18 02:57:21;;;;;;;3.83;2.72;;;;;;;;;;5113076;28;20496;-67
2024/03/18 03:00:08;;;;;;;3.47;2.75;;;;;;;;;;5113625;28;20042;-67
2024/03/18 03:02:54;;;;;;;4.07;2.42;;;;;;;;;;5113438;28;20027;-67
2024/03/18 03:05:39;;;;;;;4.25;2.63;;;;;;;;;;5104109;28;20020;-66
2024/03/18 03:08:26;;;;;;;3.50;2.22;;;;;;;;;;5113106;28;20039;-67
2024/03/18 03:11:12;;;;;;;5.40;2.72;;;;;;;;;;5113367;28;20421;-67
2024/03/18 03:13:57;;;;;;;7.20;2.78;;;;;;;;;;5097898;28;20055;-67
2024/03/18 03:16:45;;;;;;;7.55;2.38;;;;;;;;;;5113295;28;20020;-67
2024/03/18 03:19:30;;;;;;;5.50;3.25;;;;;;;;;;5112799;28;20500;-67
2024/03/18 03:22:19;;;;;;;7.28;2.80;;;;;;;;;;5112866;28;20020;-66
2024/03/18 03:25:05;;;;;;;5.35;2.70;;;;;;;;;;5112257;28;20055;-67
2024/03/18 03:27:53;;;;;;;4.20;2.35;;;;;;;;;;5113521;28;20024;-67
2024/03/18 03:30:39;;;;;;;3.88;2.80;;;;;;;;;;5097600;28;20024;-66
2024/03/18 03:33:24;;;;;;;4.75;2.90;;;;;;;;;;5112852;28;20023;-67
2024/03/18 03:36:11;;;;;;;4.53;2.88;;;;;;;;;;5112895;28;20061;-67
2024/03/18 03:38:57;;;;;;;4.30;2.25;;;;;;;;;;5117373;28;20020;-67
2024/03/18 03:41:43;;;;;;;4.22;3.35;;;;;;;;;;5116888;28;20051;-66
2024/03/18 03:44:28;;;;;;;4.32;2.65;;;;;;;;;;5116580;28;20027;-67
2024/03/18 03:47:15;;;;;;;5.22;3.45;;;;;;;;;;5117235;28;20027;-67
2024/03/18 03:50:01;;;;;;;3.08;2.63;;;;;;;;;;5117035;28;20061;-67
2024/03/18 03:52:47;;;;;;;4.47;2.40;;;;;;;;;;5115852;28;20496;-67
2024/03/18 03:55:37;;;;;;;4.47;2.42;;;;;;;;;;5116667;28;20039;-67
2024/03/18 03:58:26;;;;;;;3.03;2.63;;;;;;;;;;5116480;28;20047;-67
2024/03/18 04:01:12;;;;;;;5.43;3.00;;;;;;;;;;5101570;28;20569;-67
2024/03/18 04:03:58;;;;;;;4.75;2.83;;;;;;;;;;5116444;28;20020;-67
2024/03/18 04:06:43;;;;;;;4.63;2.85;;;;;;;;;;5115693;28;20027;-67
2024/03/18 04:09:29;;;;;;;4.97;3.03;;;;;;;;;;5116101;28;20087;-67
2024/03/18 04:12:15;;;;;;;3.03;2.53;;;;;;;;;;5116676;28;20020;-67
2024/03/18 04:15:01;;;;;;;4.18;3.40;;;;;;;;;;5116226;28;20106;-67
2024/03/18 04:17:50;;;;;;;4.35;2.42;;;;;;;;;;5104573;28;20080;-67
2024/03/18 04:20:36;;;;;;;3.85;2.85;;;;;;;;;;5101400;28;20378;-67
2024/03/18 04:23:22;;;;;;;5.88;2.25;;;;;;;;;;5110539;27;20016;-67
2024/03/18 04:26:08;;;;;;;4.38;2.65;;;;;;;;;;5103817;28;20078;-67
2024/03/18 04:28:53;;;;;;;5.45;3.05;;;;;;;;;;5109731;28;20053;-66
2024/03/18 04:31:39;;;;;;;3.60;2.50;;;;;;;;;;5089337;28;20050;-67
2024/03/18 04:34:26;;;;;;;3.95;2.63;;;;;;;;;;5095903;28;20497;-67
2024/03/18 04:37:12;;;;;;;3.08;2.63;;;;;;;;;;5095302;28;20024;-67
2024/03/18 04:39:58;;;;;;;3.72;2.83;;;;;;;;;;5096278;28;20024;-65
2024/03/18 04:42:44;;;;;;;2.92;2.08;;;;;;;;;;5095812;28;20032;-67
2024/03/18 04:45:29;;;;;;;4.32;2.92;;;;;;;;;;5092683;28;20108;-67
2024/03/18 04:48:15;;;;;;;6.05;2.58;;;;;;;;;;5091644;28;20046;-66
2024/03/18 04:51:01;;;;;;;7.32;2.50;;;;;;;;;;5095348;28;20027;-67
2024/03/18 04:53:47;;;;;;;4.03;2.78;;;;;;;;;;5096259;28;20024;-67
2024/03/18 04:56:32;;;;;;;4.68;2.78;;;;;;;;;;5096016;28;20032;-67
2024/03/18 04:59:18;;;;;;;3.95;2.45;;;;;;;;;;5095915;28;20024;-67
2024/03/18 05:02:05;;;;;;;4.32;2.63;;;;;;;;;;5095223;28;20020;-67
2024/03/18 05:04:51;;;;;;;5.22;2.75;;;;;;;;;;5080078;28;20040;-67
2024/03/18 05:07:37;;;;;;;4.40;2.58;;;;;;;;;;5057064;28;20032;-66
2024/03/18 05:10:23;;;;;;;5.00;2.42;;;;;;;;;;5075124;28;20090;-67
2024/03/18 05:13:09;;;;;;;5.93;2.95;;;;;;;;;;5074687;28;20024;-66
2024/03/18 05:15:54;;;;;;;4.05;2.40;;;;;;;;;;5075783;28;20031;-66
2024/03/18 05:18:40;;;;;;;4.30;2.80;;;;;;;;;;5091922;28;20028;-67
2024/03/18 05:21:26;;;;;;;5.50;2.50;;;;;;;;;;5094641;28;20024;-66
2024/03/18 05:24:11;;;;;;;3.95;3.05;;;;;;;;;;5078583;28;20089;-67
2024/03/18 05:26:57;;;;;;;3.47;2.45;;;;;;;;;;5088395;28;20016;-66
2024/03/18 05:29:43;;;;;;;3.40;2.45;;;;;;;;;;5094774;28;20089;-67
2024/03/18 05:32:28;;;;;;;3.47;2.63;;;;;;;;;;5093455;28;20035;-66
2024/03/18 05:35:14;;;;;;;3.50;2.92;;;;;;;;;;5076131;28;20028;-66
2024/03/18 05:38:00;;;;;;;4.50;3.05;;;;;;;;;;5073070;28;20059;-67
2024/03/18 05:40:45;;;;;;;4.05;2.60;;;;;;;;;;5074287;28;20028;-66
2024/03/18 05:43:31;;;;;;;4.28;2.60;;;;;;;;;;5073942;28;20020;-66
2024/03/18 05:46:18;;;;;;;6.22;3.08;;;;;;;;;;5074750;28;20020;-67
2024/03/18 05:49:03;;;;;;;4.82;3.22;;;;;;;;;;5103535;28;20441;-66
2024/03/18 05:51:49;;;;;;;4.53;2.92;;;;;;;;;;5112961;28;20030;-67
2024/03/18 05:54:35;;;;;;;4.07;2.60;;;;;;;;;;5114699;28;20024;-67
2024/03/18 05:57:21;;;;;;;3.63;2.35;;;;;;;;;;5103897;28;20016;-66
2024/03/18 06:00:07;;;;;;;4.15;2.58;;;;;;;;;;5073279;28;20405;-66
2024/03/18 06:02:53;;;;;;;4.78;2.35;;;;;;;;;;5066199;28;20116;-67
2024/03/18 06:05:39;;;;;;;4.93;2.40;;;;;;;;;;5073648;28;20028;-66
2024/03/18 06:08:25;;;;;;;7.70;3.03;;;;;;;;;;5058381;28;20190;-67
2024/03/18 06:11:11;;;;;;;4.85;2.80;;;;;;;;;;5074348;28;20032;-66
2024/03/18 06:13:57;;;;;;;3.45;2.25;;;;;;;;;;5072898;28;20029;-66
2024/03/18 06:16:42;;;;;;;4.40;2.40;;;;;;;;;;5073621;28;20016;-67
2024/03/18 06:19:33;;;;;;;4.40;2.80;;;;;;;;;;5104709;28;20065;-66
2024/03/18 06:22:23;;;;;;;3.60;2.03;;;;;;;;;;5112156;28;20027;-66
2024/03/18 06:28:14;;;;;;;3.03;2.35;;;;;;;;;;5114246;28;20049;-66
2024/03/18 06:31:00;;;;;;;6.78;2.80;;;;;;;;;;5111856;28;20868;-66
2024/03/18 06:33:47;;;;;;;3.40;2.47;;;;;;;;;;5108870;28;20024;-66
2024/03/18 06:36:35;;;;;;;5.30;3.10;;;;;;;;;;5073605;28;20419;-66
2024/03/18 06:39:21;;;;;;;6.32;2.28;;;;;;;;;;5070949;28;20482;-66
2024/03/18 06:42:06;;;;;;;3.58;2.72;;;;;;;;;;5080198;28;20453;-66
2024/03/18 06:44:52;;;;;;;6.80;2.35;;;;;;;;;;5073296;28;20021;-67
2024/03/18 06:47:37;;;;;;;3.50;2.58;;;;;;;;;;5071529;28;20074;-66
2024/03/18 06:50:23;;;;;;;3.92;2.75;;;;;;;;;;5073536;28;20490;-66
2024/03/18 06:53:09;;;;;;;3.85;2.08;;;;;;;;;;5073107;28;20398;-66
2024/03/18 06:55:54;;;;;;;4.97;2.67;;;;;;;;;;5072730;28;20017;-67
2024/03/18 06:58:40;;;;;;;4.35;2.05;;;;;;;;;;5073017;28;20017;-66
2024/03/18 07:01:26;;;;;;;4.45;2.35;;;;;;;;;;5072645;28;20029;-67
2024/03/18 07:04:12;;;;;;;4.63;2.40;;;;;;;;;;5072833;28;20033;-67
2024/03/18 07:06:57;;;;;;;4.10;2.65;;;;;;;;;;5083984;28;20020;-66
2024/03/18 07:09:43;;;;;;;4.03;3.03;;;;;;;;;;5093146;28;20405;-66
2024/03/18 07:12:29;;;;;;;8.77;3.20;;;;;;;;;;5090814;28;20020;-66
2024/03/18 07:15:16;;;;;;;6.80;2.85;;;;;;;;;;5092601;28;20386;-66
2024/03/18 07:18:03;;;;;;;3.40;2.50;;;;;;;;;;5073407;28;20020;-66
2024/03/18 07:20:49;;;;;;;4.60;3.10;;;;;;;;;;5067177;28;20059;-67
2024/03/18 07:23:35;;;;;;;3.38;2.63;;;;;;;;;;5060959;28;20035;-67
2024/03/18 07:26:22;;;;;;;3.03;2.15;;;;;;;;;;5092848;28;20401;-66
2024/03/18 07:29:07;;;;;;;5.78;2.92;;;;;;;;;;5092266;28;20031;-66
2024/03/18 07:31:56;;;;;;;3.03;2.50;;;;;;;;;;5092877;28;20371;-67
2024/03/18 07:34:42;;;;;;;4.20;3.00;;;;;;;;;;5088585;28;20450;-67
2024/03/18 07:37:29;;;;;;;4.07;3.17;;;;;;;;;;5073461;28;20025;-67
2024/03/18 07:40:15;;;;;;;4.80;2.63;;;;;;;;;;5071723;28;20082;-66
2024/03/18 07:43:00;;;;;;;7.15;2.80;;;;;;;;;;5074436;28;20108;-67
2024/03/18 07:45:46;;;;;;;6.38;3.38;;;;;;;;;;5090852;28;20024;-67
2024/03/18 07:48:32;;;;;;;3.72;2.83;;;;;;;;;;5082968;28;20029;-67
2024/03/18 07:51:17;;;;;;;3.20;2.80;;;;;;;;;;5092061;28;20024;-66
2024/03/18 07:54:03;;;;;;;4.45;2.47;;;;;;;;;;5101899;28;20076;-67
2024/03/18 07:56:48;;;;;;;2.42;2.13;;;;;;;;;;5112788;28;20099;-66
2024/03/18 07:59:34;;;;;;;4.63;2.58;;;;;;;;;;5111971;28;20077;-67
2024/03/18 08:02:20;;;;;;;4.40;2.75;;;;;;;;;;5112529;28;20053;-66
2024/03/18 08:05:06;;;;;;;3.22;2.35;;;;;;;;;;5097904;28;20021;-67
2024/03/18 08:07:52;;;;;;;4.38;2.30;;;;;;;;;;5072154;28;20056;-67
2024/03/18 08:10:38;;;;;;;4.10;3.35;;;;;;;;;;5057520;28;20157;-66
2024/03/18 08:13:23;;;;;;;7.57;3.08;;;;;;;;;;5087741;28;20016;-69
2024/03/18 08:16:09;;;;;;;7.40;2.63;;;;;;;;;;5090906;28;20015;-67
2024/03/18 08:18:55;;;;;;;4.50;2.53;;;;;;;;;;5084082;28;20040;-67
2024/03/18 08:21:40;;;;;;;8.73;3.10;;;;;;;;;;5071134;28;20020;-66
2024/03/18 08:24:26;;;;;;;3.03;2.20;;;;;;;;;;5103673;28;20024;-67
2024/03/18 08:27:12;;;;;;;4.43;2.85;;;;;;;;;;5114642;28;20111;-66
2024/03/18 08:29:58;;;;;;;5.07;2.95;;;;;;;;;;5094489;28;20401;-66
2024/03/18 08:32:44;;;;;;;3.75;2.10;;;;;;;;;;5094457;28;20027;-67
2024/03/18 08:35:29;;;;;;;3.25;2.33;;;;;;;;;;5095206;28;20481;-67
2024/03/18 08:38:15;;;;;;;5.10;2.72;;;;;;;;;;5103872;28;20050;-66
2024/03/18 08:41:01;;;;;;;2.75;2.47;;;;;;;;;;5115833;28;20103;-66
2024/03/18 08:43:47;;;;;;;7.38;2.67;;;;;;;;;;5101011;28;20036;-67
2024/03/18 08:46:33;;;;;;;4.03;2.90;;;;;;;;;;5100560;28;20064;-67
2024/03/18 08:49:19;;;;;;;5.40;2.85;;;;;;;;;;5094386;28;20020;-66
2024/03/18 08:52:05;;;;;;;6.55;2.53;;;;;;;;;;5075421;28;20580;-66
2024/03/18 08:54:51;;;;;;;3.90;2.60;;;;;;;;;;5058931;28;20397;-66
2024/03/18 08:57:36;;;;;;;3.35;2.67;;;;;;;;;;5091801;28;20016;-66
2024/03/18 09:00:23;;;;;;;4.40;2.50;;;;;;;;;;5094490;28;20034;-66
2024/03/18 09:03:09;;;;;;;4.35;2.58;;;;;;;;;;5095666;28;20024;-66
2024/03/18 09:05:55;;;;;;;6.00;2.65;;;;;;;;;;5095147;28;20058;-66
2024/03/18 09:08:45;;;;;;;4.88;2.63;;;;;;;;;;5093763;28;20499;-66
2024/03/18 09:11:30;;;;;;;4.03;2.78;;;;;;;;;;5112964;28;20478;-66
2024/03/18 09:14:16;;;;;;;4.00;2.40;;;;;;;;;;5113265;28;20097;-66
2024/03/18 09:17:02;;;;;;;5.72;2.40;;;;;;;;;;5077843;28;20054;-66
2024/03/18 09:19:47;;;;;;;3.15;2.50;;;;;;;;;;5109657;28;20153;-66
2024/03/18 09:22:33;;;;;;;5.70;2.72;;;;;;;;;;5114104;28;20027;-66
2024/03/18 09:25:19;;;;;;;6.30;2.35;;;;;;;;;;5084455;28;20571;-66
2024/03/18 09:28:04;;;;;;;3.63;2.42;;;;;;;;;;5073366;28;20115;-65
2024/03/18 09:31:01;;;;;;;3.47;2.25;;;;;;;;;;5094160;28;20102;-66
2024/03/18 09:33:46;;;;;;;7.38;2.53;;;;;;;;;;5071006;28;20078;-66
2024/03/18 09:36:33;;;;;;;5.13;2.60;;;;;;;;;;5077845;28;20019;-66
2024/03/18 09:39:18;;;;;;;6.45;2.75;;;;;;;;;;5072986;28;20016;-66
2024/03/18 09:42:04;;;;;;;7.00;2.53;;;;;;;;;;5081120;28;20023;-66
2024/03/18 09:44:51;;;;;;;3.50;3.05;;;;;;;;;;5058419;28;20028;-66
2024/03/18 09:47:36;;;;;;;6.38;3.22;;;;;;;;;;5076378;28;20086;-65
2024/03/18 09:50:22;;;;;;;4.93;2.75;;;;;;;;;;5071095;28;20107;-66
2024/03/18 09:53:11;;;;;;;6.65;3.33;;;;;;;;;;5072754;28;20440;-66
2024/03/18 09:55:56;;;;;;;4.20;2.83;;;;;;;;;;5078250;28;20446;-66
2024/03/18 09:58:42;;;;;;;8.00;3.00;;;;;;;;;;5093041;28;20099;-67
2024/03/18 10:01:29;;;;;;;6.00;2.72;;;;;;;;;;5065001;28;20029;-67
2024/03/18 10:04:15;;;;;;;8.52;3.95;;;;;;;;;;5073373;28;20406;-66
2024/03/18 10:07:01;;;;;;;5.57;2.90;;;;;;;;;;5094905;28;20549;-66
2024/03/18 10:09:48;;;;;;;6.00;2.78;;;;;;;;;;5077943;28;20032;-66
2024/03/18 10:12:33;;;;;;;6.78;3.00;;;;;;;;;;5095765;28;20028;-66
2024/03/18 10:15:19;;;;;;;5.95;2.88;;;;;;;;;;5093251;28;20058;-66
2024/03/18 10:18:09;;;;;;;4.20;2.42;;;;;;;;;;5090513;28;20016;-67
2024/03/18 10:20:59;;;;;;;4.72;2.92;;;;;;;;;;5078812;28;20020;-66
2024/03/18 10:23:47;;;;;;;5.65;2.83;;;;;;;;;;5076578;28;20021;-65
2024/03/18 10:26:34;;;;;;;4.78;2.90;;;;;;;;;;5091921;28;20370;-65
2024/03/18 10:29:19;;;;;;;5.95;3.17;;;;;;;;;;5078693;28;20055;-68
2024/03/18 10:32:10;;;;;;;5.97;2.55;;;;;;;;;;5077982;28;20036;-67
2024/03/18 10:35:01;;;;;;;6.43;2.97;;;;;;;;;;5073915;28;20039;-67
2024/03/18 10:37:53;;;;;;;5.70;3.30;;;;;;;;;;5077818;28;20031;-67
2024/03/18 10:40:39;;;;;;;5.80;2.35;;;;;;;;;;5056800;28;20032;-66
2024/03/18 10:43:32;;;;;;;7.20;3.15;;;;;;;;;;5082927;28;20020;-66
2024/03/18 10:46:17;;;;;;;6.30;2.92;;;;;;;;;;5069002;28;20031;-67
2024/03/18 10:49:03;;;;;;;6.45;2.90;;;;;;;;;;5060485;28;20037;-67
2024/03/18 10:51:49;;;;;;;6.00;2.47;;;;;;;;;;5078092;28;20028;-66
2024/03/18 10:54:35;;;;;;;6.75;2.97;;;;;;;;;;5081762;28;20028;-67
2024/03/18 10:57:21;;;;;;;8.73;3.30;;;;;;;;;;5075177;28;20013;-67
2024/03/18 11:00:11;;;;;;;6.13;3.20;;;;;;;;;;5111923;28;20020;-66
2024/03/18 11:02:59;;;;;;;3.88;2.83;;;;;;;;;;5071919;28;20032;-65
2024/03/18 11:05:48;;;;;;;6.07;3.05;;;;;;;;;;5071382;28;20061;-66
2024/03/18 11:08:35;;;;;;;5.97;2.90;;;;;;;;;;5088098;28;20032;-66
2024/03/18 11:11:21;;;;;;;5.40;3.00;;;;;;;;;;5098095;28;20101;-66
2024/03/18 11:14:11;;;;;;;14.18;3.72;;;;;;;;;;5104060;28;20031;-67
2024/03/18 11:16:57;;;;;;;4.72;3.05;;;;;;;;;;5085376;28;20485;-66
2024/03/18 11:19:45;;;;;;;5.85;3.10;;;;;;;;;;5098887;28;20441;-67
2024/03/18 11:22:31;;;;;;;4.22;2.78;;;;;;;;;;5098642;28;20016;-67
2024/03/18 11:25:18;;;;;;;8.23;3.22;;;;;;;;;;5087268;28;20501;-66
2024/03/18 11:28:04;;;;;;;6.63;3.53;;;;;;;;;;5070791;28;20041;-66
2024/03/18 11:30:50;;;;;;;11.38;3.53;;;;;;;;;;5073967;28;20025;-67
2024/03/18 11:33:38;;;;;;;5.45;3.03;;;;;;;;;;5072794;28;20028;-67
2024/03/18 11:36:25;;;;;;;6.78;3.38;;;;;;;;;;5068365;28;20068;-66
2024/03/18 11:39:13;;;;;;;9.40;3.58;;;;;;;;;;5057084;28;20027;-67
2024/03/18 11:42:03;;;;;;;6.65;2.90;;;;;;;;;;5064688;28;20030;-67
2024/03/18 11:44:49;;;;;;;6.10;3.50;;;;;;;;;;5077611;28;20016;-67
2024/03/18 11:47:35;;;;;;;7.15;3.03;;;;;;;;;;5080914;28;20017;-67
2024/03/18 11:50:21;;;;;;;5.40;2.80;;;;;;;;;;5090971;28;20035;-67
2024/03/18 11:53:08;;;;;;;4.65;2.55;;;;;;;;;;5078323;28;20496;-67
2024/03/18 11:55:54;;;;;;;6.82;2.85;;;;;;;;;;5071575;28;20036;-67
2024/03/18 11:58:39;;;;;;;7.75;3.10;;;;;;;;;;5080595;28;20020;-67
2024/03/18 12:01:29;;;;;;;4.57;2.92;;;;;;;;;;5075518;28;20460;-67
2024/03/18 12:04:19;;;;;;;5.63;2.70;;;;;;;;;;5098667;28;20441;-67
2024/03/18 12:07:05;;;;;;;6.05;3.45;;;;;;;;;;5095366;28;20028;-66
2024/03/18 12:09:52;;;;;;;5.43;3.05;;;;;;;;;;5088136;28;20036;-67
2024/03/18 12:12:38;;;;;;;4.85;2.33;;;;;;;;;;5087311;28;20034;-67
2024/03/18 12:15:24;;;;;;;4.38;2.60;;;;;;;;;;5116038;28;20027;-67
2024/03/18 12:18:10;;;;;;;6.97;3.10;;;;;;;;;;5104015;28;20012;-66
2024/03/18 12:20:56;;;;;;;5.43;2.60;;;;;;;;;;5075779;28;20086;-66
2024/03/18 12:29:53;;;;;;;7.97;3.33;;;;;;;;;;5080065;28;20023;-66
2024/03/18 12:32:38;;;;;;;8.55;3.60;;;;;;;;;;5074365;28;20032;-66
2024/03/18 12:35:26;;;;;;;9.02;3.42;;;;;;;;;;5075128;28;20020;-67
2024/03/18 12:38:12;;;;;;;8.05;3.00;;;;;;;;;;5093628;28;20024;-67
2024/03/18 12:40:57;;;;;;;6.53;3.05;;;;;;;;;;5079474;28;20027;-67
2024/03/18 12:43:44;;;;;;;7.50;3.25;;;;;;;;;;5086892;28;20043;-66
2024/03/18 12:46:30;;;;;;;5.35;2.63;;;;;;;;;;5070827;28;20024;-66
2024/03/18 12:49:15;;;;;;;4.75;2.78;;;;;;;;;;5094911;28;20481;-66
2024/03/18 12:52:01;;;;;;;6.28;3.28;;;;;;;;;;5114783;28;20024;-66
2024/03/18 12:54:47;;;;;;;7.22;3.38;;;;;;;;;;5110470;28;20023;-65
2024/03/18 12:57:33;;;;;;;7.88;3.20;;;;;;;;;;5090997;28;20051;-66
2024/03/18 13:00:19;;;;;;;5.22;2.97;;;;;;;;;;5095327;28;20020;-66
2024/03/18 13:03:05;;;;;;;8.45;3.63;;;;;;;;;;5079182;28;20423;-66
2024/03/18 13:05:50;;;;;;;6.47;3.15;;;;;;;;;;5058928;28;20556;-66
2024/03/18 13:08:36;;;;;;;6.88;3.38;;;;;;;;;;5108531;28;20028;-66
2024/03/18 13:11:22;;;;;;;5.75;2.83;;;;;;;;;;5113454;28;20027;-65
2024/03/18 13:14:09;;;;;;;4.45;2.30;;;;;;;;;;5086648;28;20387;-66
2024/03/18 13:16:58;;;;;;;7.05;2.80;;;;;;;;;;5073877;28;20024;-66
2024/03/18 13:19:44;;;;;;;5.65;2.45;;;;;;;;;;5064258;28;20024;-64
2024/03/18 13:22:30;;;;;;;8.65;2.67;;;;;;;;;;5073184;28;20087;-65
2024/03/18 13:25:16;;;;;;;5.75;2.92;;;;;;;;;;5078731;28;20054;-66
2024/03/18 13:28:02;;;;;;;5.53;2.42;;;;;;;;;;5073219;28;20056;-64
2024/03/18 13:30:48;;;;;;;5.05;2.83;;;;;;;;;;5076338;28;20397;-66
2024/03/18 13:33:33;;;;;;;4.47;2.63;;;;;;;;;;5060536;28;20595;-66
2024/03/18 13:36:19;;;;;;;4.30;2.22;;;;;;;;;;5073652;28;20021;-66
2024/03/18 13:39:05;;;;;;;6.20;2.97;;;;;;;;;;5091242;28;20134;-66
2024/03/18 13:41:51;;;;;;;4.50;2.58;;;;;;;;;;5093084;28;20020;-66
2024/03/18 13:44:36;;;;;;;5.00;2.63;;;;;;;;;;5082186;28;20033;-66
2024/03/18 13:47:22;;;;;;;5.53;2.83;;;;;;;;;;5073796;28;20448;-66
2024/03/18 13:50:08;;;;;;;5.28;2.50;;;;;;;;;;5079284;28;20063;-66
2024/03/18 13:52:54;;;;;;;7.05;3.05;;;;;;;;;;5071996;28;20024;-66
2024/03/18 13:55:40;;;;;;;6.68;2.92;;;;;;;;;;5078914;28;20028;-66
2024/03/18 13:58:25;;;;;;;6.53;2.50;;;;;;;;;;5095149;27;20615;-66
2024/03/18 14:01:12;;;;;;;6.40;2.72;;;;;;;;;;5091797;28;20146;-66
2024/03/18 14:03:58;;;;;;;5.47;1.90;;;;;;;;;;5073271;28;20024;-66
2024/03/18 14:06:43;;;;;;;4.65;2.78;;;;;;;;;;5075124;28;20073;-65
2024/03/18 14:09:29;;;;;;;5.13;2.70;;;;;;;;;;5073730;28;20099;-66
2024/03/18 14:12:15;;;;;;;5.68;2.63;;;;;;;;;;5074726;28;20028;-66
2024/03/18 14:15:02;;;;;;;4.00;2.40;;;;;;;;;;5075846;28;20028;-66
2024/03/18 14:17:49;;;;;;;4.43;2.58;;;;;;;;;;5073054;28;20055;-66
2024/03/18 14:20:35;;;;;;;4.25;2.50;;;;;;;;;;5089462;28;20500;-66
2024/03/18 14:23:20;;;;;;;6.40;2.42;;;;;;;;;;5091152;28;20031;-66
2024/03/18 14:26:07;;;;;;;4.60;2.80;;;;;;;;;;5105405;28;20027;-66
2024/03/18 14:28:52;;;;;;;4.60;2.63;;;;;;;;;;5111933;28;20024;-66
2024/03/18 14:31:38;;;;;;;6.78;3.55;;;;;;;;;;5112106;28;20032;-66
2024/03/18 14:34:25;;;;;;;4.30;2.47;;;;;;;;;;5114280;28;20370;-66
2024/03/18 14:37:10;;;;;;;4.72;3.22;;;;;;;;;;5101913;28;20012;-65
2024/03/18 14:39:56;;;;;;;6.32;3.10;;;;;;;;;;5073468;28;20024;-66
2024/03/18 14:42:43;;;;;;;5.38;3.03;;;;;;;;;;5072980;28;20478;-66
2024/03/18 14:45:31;;;;;;;4.82;2.83;;;;;;;;;;5093568;28;20027;-66
2024/03/18 14:48:17;;;;;;;3.50;2.20;;;;;;;;;;5090800;28;20059;-66
2024/03/18 14:51:05;;;;;;;5.32;2.70;;;;;;;;;;5086838;28;20028;-66
2024/03/18 14:53:50;;;;;;;7.15;3.58;;;;;;;;;;5076807;28;20047;-66
2024/03/18 14:56:36;;;;;;;6.55;3.00;;;;;;;;;;5065428;28;20579;-66
2024/03/18 14:59:21;;;;;;;11.52;3.30;;;;;;;;;;5083942;28;20097;-66
2024/03/18 15:02:08;;;;;;;3.72;2.20;;;;;;;;;;5079024;28;20085;-66
2024/03/18 15:04:53;;;;;;;3.95;2.40;;;;;;;;;;5075100;28;20024;-66
2024/03/18 15:07:40;;;;;;;5.75;3.00;;;;;;;;;;5071916;28;20028;-65
2024/03/18 15:10:26;;;;;;;7.47;3.35;;;;;;;;;;5072766;28;20048;-66
2024/03/18 15:13:11;;;;;;;7.55;4.00;;;;;;;;;;5072806;28;20390;-66
2024/03/18 15:15:58;;;;;;;3.47;2.67;;;;;;;;;;5073551;28;20025;-66
2024/03/18 15:18:47;;;;;;;5.93;2.22;;;;;;;;;;5073627;28;20091;-66
2024/03/18 15:21:33;;;;;;;4.28;2.45;;;;;;;;;;5057733;28;20020;-66
2024/03/18 15:24:27;;;;;;;3.58;2.85;;;;;;;;;;5071508;28;20028;-66
2024/03/18 15:30:17;;;;;;;4.90;2.50;;;;;;;;;;5072682;28;20104;-66
2024/03/18 15:33:06;;;;;;;7.30;2.42;;;;;;;;;;5074006;28;20081;-66
2024/03/18 15:35:52;;;;;;;3.67;2.30;;;;;;;;;;5076660;28;20106;-66
2024/03/18 15:38:38;;;;;;;5.97;2.70;;;;;;;;;;5077418;28;20529;-66
2024/03/18 15:41:24;;;;;;;4.38;2.67;;;;;;;;;;5077753;28;20029;-66
2024/03/18 15:44:10;;;;;;;3.92;2.70;;;;;;;;;;5076617;28;20497;-66
2024/03/18 15:46:55;;;;;;;4.50;2.17;;;;;;;;;;5076692;28;20059;-65
2024/03/18 15:49:41;;;;;;;5.25;2.72;;;;;;;;;;5076052;28;20035;-66
2024/03/18 15:52:27;;;;;;;4.45;2.33;;;;;;;;;;5075974;28;20067;-66
2024/03/18 15:55:12;;;;;;;3.60;2.60;;;;;;;;;;5075612;28;20482;-66
2024/03/18 15:57:58;;;;;;;4.88;2.40;;;;;;;;;;5076055;28;20044;-66
2024/03/18 16:00:46;;;;;;;3.55;2.47;;;;;;;;;;5077075;28;20033;-66
2024/03/18 16:03:33;;;;;;;4.88;2.50;;;;;;;;;;5076887;28;20074;-66
2024/03/18 16:06:19;;;;;;;5.03;2.63;;;;;;;;;;5076359;28;20122;-66
2024/03/18 16:09:05;;;;;;;5.13;2.55;;;;;;;;;;5076620;28;20501;-66
2024/03/18 16:11:51;;;;;;;5.30;2.80;;;;;;;;;;5076372;28;20036;-66
2024/03/18 16:14:36;;;;;;;3.83;2.40;;;;;;;;;;5076798;28;20025;-66
2024/03/18 16:17:22;;;;;;;3.22;2.63;;;;;;;;;;5078748;28;20031;-66
2024/03/18 16:20:11;;;;;;;5.47;3.03;;;;;;;;;;5075210;28;20486;-66
2024/03/18 16:22:57;;;;;;;4.45;2.20;;;;;;;;;;5059672;28;20032;-66
2024/03/18 16:25:43;;;;;;;4.13;2.80;;;;;;;;;;5075589;28;20043;-66
2024/03/18 16:28:30;;;;;;;4.80;2.38;;;;;;;;;;5076592;28;20025;-65
2024/03/18 16:31:15;;;;;;;5.65;2.47;;;;;;;;;;5074117;28;20032;-66
2024/03/18 16:34:01;;;;;;;6.55;3.92;;;;;;;;;;5075677;28;20021;-66
2024/03/18 16:36:47;;;;;;;11.98;3.47;;;;;;;;;;5075088;28;20060;-65
2024/03/18 16:39:33;;;;;;;3.58;2.17;;;;;;;;;;5074287;28;20062;-65
2024/03/18 16:42:18;;;;;;;7.30;2.72;;;;;;;;;;5076102;28;20027;-66
2024/03/18 16:45:05;;;;;;;4.60;1.90;;;;;;;;;;5074607;28;20032;-65
2024/03/18 16:47:50;;;;;;;3.75;2.47;;;;;;;;;;5075151;28;20027;-66
2024/03/18 16:50:36;;;;;;;7.32;2.60;;;;;;;;;;5075425;28;20028;-65
2024/03/18 16:53:22;;;;;;;5.20;2.33;;;;;;;;;;5074429;28;20024;-65